• Join FlightAware (Why Join?)
  • Login
  • US Flag 
06:47AM EST


 

Airport Tracker/Info


-or-


 

Live Flight TrackerFlight Track Log ✈ AWE1435 ✈ 04-Sep-2012 ✈ KDCA - KCLT

Flight Track Log - Related Links

Times and Time Zones

All times are in EDT time to prevent confusion due to time zone crossing. See the AWE1435 flight status page for this flight to view local times or setup timezone preferences in your user account.

Time Position Orientation Groundspeed Altitude Reporting Facility
EDT Latitude Longitude Course Direction KTS MPH feet Rate Location/Type
11:13AM 38.7833 -77.0333 256° West 186 214 3,000  Level Potomac TRACON
11:14AM 38.7667 -77.1167 265° West 252 290 4,900 1,320 Climbing Potomac TRACON
11:15AM 38.7636 -77.1597 232° Southwest 257 296 5,000 2,040 Climbing Washington Center
11:16AM 38.7231 -77.2256 220° Southwest 269 310 7,900 2,820 Climbing Washington Center
11:17AM 38.6639 -77.2881 219° Southwest 263 303 10,600 2,160 Climbing Washington Center
11:18AM 38.6003 -77.3531 220° Southwest 279 321 12,300 2,160 Climbing Washington Center
11:19AM 38.5367 -77.4203 218° Southwest 300 345 15,000 1,980 Climbing Washington Center
11:20AM 38.4625 -77.4956 221° Southwest 321 369 16,200 1,320 Climbing Washington Center
11:21AM 38.3819 -77.5861 230° Southwest 356 410 17,700 1,560 Climbing Washington Center
11:22AM 38.3114 -77.6928 230° Southwest 388 447 19,400 1,620 Climbing Washington Center
11:23AM 38.2361 -77.8069 229° Southwest 411 473 21,100 1,680 Climbing Washington Center
11:24AM 38.1611 -77.9183 229° Southwest 424 488 22,800 960 Climbing Washington Center
11:25AM 38.0839 -78.0319 229° Southwest 430 495 23,100 720 Climbing Washington Center
11:26AM 38.0214 -78.1247 231° Southwest 430 495 24,300 1,380 Climbing Washington Center
11:27AM 37.9417 -78.2486 230° Southwest 425 489 26,000 780 Climbing Washington Center
11:28AM 37.8639 -78.3642 228° Southwest 425 489 26,000  Level Washington Center
11:29AM 37.7861 -78.4744 230° Southwest 425 489 26,000  Level Washington Center
11:30AM 37.7017 -78.5997 228° Southwest 431 496 26,000  Level Washington Center
11:31AM 37.6261 -78.7069 228° Southwest 426 490 26,000  Level Washington Center
11:32AM 37.5458 -78.8189 229° Southwest 426 490 26,000  Level Washington Center
11:33AM 37.4678 -78.9306 229° Southwest 426 490 26,000  Level Washington Center
11:34AM 37.3894 -79.0422 228° Southwest 426 490 26,000  Level Washington Center
11:35AM 37.3178 -79.1436 226° Southwest 426 490 26,000  Level Washington Center
11:36AM 37.2353 -79.2492 213° Southwest 426 490 26,000  Level Washington Center
11:37AM 37.1367 -79.3306 215° Southwest 426 490 26,000  Level Washington Center
11:38AM 37.0403 -79.4142 212° Southwest 432 497 26,000  Level Washington Center
11:39AM 36.9375 -79.4950 214° Southwest 437 503 26,000  Level Washington Center
11:40AM 36.8322 -79.5831 214° Southwest 432 497 26,000  Level Washington Center
11:41AM 36.7314 -79.6686 212° Southwest 432 497 26,000 -180 Level Washington Center
11:42AM 36.6328 -79.7461 214° Southwest 432 497 25,700 -960 Descending Washington Center
11:43AM 36.5339 -79.8289 212° Southwest 432 497 24,100 -1,680 Descending Washington Center
11:44AM 36.4481 -79.8964 210° Southwest 427 491 22,400 -1,500 Descending Washington Center
11:44AM 36.3942 -79.9353 214° Southwest 426 490 22,000 -300 Descending Atlanta Center
11:45AM 36.3131 -80.0039 215° Southwest 401 461 22,000  Level Atlanta Center
11:46AM 36.2136 -80.0886 216° Southwest 396 456 22,000 -900 Level Atlanta Center
11:47AM 36.1244 -80.1675 214° Southwest 396 456 20,300 -2,400 Descending Atlanta Center
11:48AM 36.0392 -80.2383 218° Southwest 389 448 17,300 -3,360 Descending Atlanta Center
11:49AM 35.9681 -80.3058 213° Southwest 356 410 14,100 -3,180 Descending Atlanta Center
11:50AM 35.9314 -80.3356 212° Southwest 354 407 13,000 -1,020 Descending Atlanta Center
11:50AM 35.8886 -80.3683 221° Southwest 355 409 13,000  Level Atlanta Center
11:51AM 35.8564 -80.4031 207° Southwest 310 357 13,000  Level Atlanta Center
11:51AM 35.8214 -80.4253 217° Southwest 315 362 13,000  Level Atlanta Center
11:51AM 35.7931 -80.4519 211° Southwest 295 339 13,000  Level Atlanta Center
11:52AM 35.7522 -80.4819 218° Southwest 303 349 13,000 -540 Level Atlanta Center
11:53AM 35.7136 -80.5194 211° Southwest 293 337 12,400 -720 Descending Atlanta Center
11:53AM 35.6811 -80.5439 219° Southwest 296 341 12,300 -660 Descending Atlanta Center
11:54AM 35.6647 -80.5600 187° South 263 303 11,900 -1,140 Descending Atlanta Center
11:54AM 35.6192 -80.5669 177° South 265 305 11,200 -1,080 Descending Atlanta Center
11:55AM 35.5961 -80.5653 177° South 242 278 10,800 -1,320 Descending Atlanta Center
11:55AM 35.5522 -80.5622 182° South 237 273 9,900 -1,620 Descending Atlanta Center
11:56AM 35.5231 -80.5633 182° South 232 267 9,000 -1,800 Descending Atlanta Center
11:56AM 35.4897 -80.5647 230° Southwest 232 267 8,100 -1,500 Descending Atlanta Center
11:57AM 35.4697 -80.5936 224° Southwest 225 259 7,500 -1,320 Descending Atlanta Center
11:57AM 35.4494 -80.6175 232° Southwest 203 234 6,800 -1,200 Descending Atlanta Center
11:58AM 35.4314 -80.6461 224° Southwest 201 231 6,300 -840 Descending Atlanta Center
11:58AM 35.4133 -80.6675 235° Southwest 203 234 6,000 -660 Descending Atlanta Center
11:59AM 35.4014 -80.6883 226° Southwest 194 223 5,700 -900 Descending Atlanta Center
11:59AM 35.3708 -80.7267 229° Southwest 187 215 4,900 -960 Descending FAA TRACON SMA TRACON (SMA)
12:00PM 35.3608 -80.7406 229° Southwest 183 211 4,600 -1,080 Descending FAA TRACON SMA TRACON (SMA)
12:00PM 35.3483 -80.7581 228° Southwest 179 206 4,200 -900 Descending FAA TRACON SMA TRACON (SMA)
12:00PM 35.3381 -80.7719 228° Southwest 178 205 4,000 -780 Descending FAA TRACON SMA TRACON (SMA)
12:01PM 35.3283 -80.7850 229° Southwest 178 205 3,700 -1,140 Descending FAA TRACON SMA TRACON (SMA)
12:01PM 35.3142 -80.8047 228° Southwest 186 214 3,300 -1,080 Descending FAA TRACON SMA TRACON (SMA)
12:01PM 35.3033 -80.8197 228° Southwest 188 216 3,000 -900 Descending FAA TRACON SMA TRACON (SMA)
12:02PM 35.2931 -80.8339 229° Southwest 185 213 2,700 -900 Descending FAA TRACON SMA TRACON (SMA)
12:02PM 35.2808 -80.8508 227° Southwest 178 205 2,400 -780 Descending FAA TRACON SMA TRACON (SMA)
12:02PM 35.2717 -80.8631 230° Southwest 174 200 2,200 -780 Descending FAA TRACON SMA TRACON (SMA)
12:03PM 35.2619 -80.8772 229° Southwest 167 192 1,900 -960 Descending FAA TRACON SMA TRACON (SMA)
12:03PM 35.2522 -80.8908 226° Southwest 145 167 1,600 -780 Descending FAA TRACON SMA TRACON (SMA)
12:03PM 35.2444 -80.9008 229° Southwest 134 154 1,400 -600 Descending FAA TRACON SMA TRACON (SMA)
12:04PM 35.2372 -80.9111 229° Southwest 130 150 1,200 -780 Descending FAA TRACON SMA TRACON (SMA)
12:04PM 35.2281 -80.9239 226° Southwest 130 150 900 -600 Descending FAA TRACON SMA TRACON (SMA)
12:04PM 35.2242 -80.9289 226° Southwest 130 150 800 -360 Descending FAA TRACON SMA TRACON (SMA)